Terminal Aerodrome Forecast
Issued by NWS Lake Charles, LA

Home | Current Version | Previous Version | Text Only | Print | Product List | Glossary On
Versions: 1 2 3 4 5 6 7 8 9 10 11 12 13 14 15 16 17 18 19 20 21 22 23 24 25
000
FTUS44 KLCH 081148 AAA
TAFLFT
TAF AMD
KLFT 081148Z 0812/0912 02012G17KT P6SM FEW008 BKN015 OVC050
      TEMPO 0812/0815 BKN008 OVC035
     FM081500 02017G25KT P6SM OVC013
     FM082100 01020G27KT P6SM OVC030
     FM090300 01014KT P6SM OVC050=

USA.gov is the U.S. government's official web portal to all federal, state and local government web resources and services.